Time;durP1;ratioP1;P1;durP2;ratioP2;P2;SDS_P1;SDS_P2;PMS_P1;PMS_P2;Temp;Humidity;BMP_temperature;BMP_pressure;BME280_temperature;BME280_humidity;BME280_pressure;Samples;Min_cycle;Max_cycle;Signal;HPM_P1;HPM_P2
2023/03/31 00:00:29;;;;;;;8.07;6.13;;;;;;;4.63;100.00;96530.72;4973953;28;20228;-66
2023/03/31 00:02:57;;;;;;;5.77;5.27;;;;;;;4.68;100.00;96518.94;4950738;28;20211;-66
2023/03/31 00:05:26;;;;;;;6.03;5.37;;;;;;;4.56;100.00;96514.00;4973343;28;20207;-64
2023/03/31 00:08:00;;;;;;;8.47;5.80;;;;;;;4.53;100.00;96513.50;4945197;28;20218;-65
2023/03/31 00:10:28;;;;;;;6.20;5.53;;;;;;;4.48;100.00;96516.63;4948645;28;20379;-66
2023/03/31 00:12:55;;;;;;;6.00;5.50;;;;;;;4.49;100.00;96511.19;4932477;28;20212;-64
2023/03/31 00:15:23;;;;;;;6.77;5.67;;;;;;;4.56;100.00;96516.63;4971604;28;20251;-65
2023/03/31 00:17:51;;;;;;;5.93;5.43;;;;;;;4.56;100.00;96502.72;4949187;28;20210;-66
2023/03/31 00:20:18;;;;;;;6.10;5.50;;;;;;;4.57;100.00;96502.53;4962156;28;20231;-64
2023/03/31 00:22:47;;;;;;;6.30;5.70;;;;;;;4.63;100.00;96503.69;4961424;28;20247;-65
2023/03/31 00:25:16;;;;;;;9.27;5.57;;;;;;;4.58;100.00;96503.38;4952820;28;20228;-65
2023/03/31 00:27:44;;;;;;;5.50;5.00;;;;;;;4.56;100.00;96500.09;4932681;28;20633;-66
2023/03/31 00:30:13;;;;;;;8.70;5.10;;;;;;;4.50;100.00;96491.06;4981097;28;21116;-64
2023/03/31 00:32:40;;;;;;;5.60;5.10;;;;;;;4.50;100.00;96485.81;4963488;28;20217;-66
2023/03/31 00:35:08;;;;;;;5.77;5.17;;;;;;;4.47;100.00;96484.31;4961529;28;20212;-66
2023/03/31 00:37:36;;;;;;;5.83;5.23;;;;;;;4.53;100.00;96482.84;4951663;28;20213;-64
2023/03/31 00:40:08;;;;;;;9.03;6.00;;;;;;;4.52;100.00;96475.13;4965380;28;20243;-65
2023/03/31 00:42:40;;;;;;;5.53;5.13;;;;;;;4.47;100.00;96471.19;4920604;28;20300;-64
2023/03/31 00:45:26;;;;;;;5.67;5.00;;;;;;;4.53;100.00;96466.28;4968571;28;20692;-66
2023/03/31 00:47:55;;;;;;;6.43;5.87;;;;;;;4.54;100.00;96466.13;4989774;28;20197;-65
2023/03/31 00:50:25;;;;;;;7.70;6.27;;;;;;;4.62;100.00;96473.19;4937737;28;20304;-66
2023/03/31 00:52:55;;;;;;;9.50;6.80;;;;;;;4.60;100.00;96464.66;4968966;28;20220;-65
2023/03/31 00:55:29;;;;;;;9.77;6.27;;;;;;;4.68;100.00;96458.56;4967109;28;20927;-65
2023/03/31 00:57:57;;;;;;;8.00;6.83;;;;;;;4.76;100.00;96462.03;4900246;28;20225;-65
2023/03/31 01:00:25;;;;;;;9.57;7.53;;;;;;;4.73;100.00;96454.47;4972393;28;20687;-65
2023/03/31 01:02:54;;;;;;;8.03;7.23;;;;;;;4.68;100.00;96448.91;4974598;28;21027;-65
2023/03/31 01:05:25;;;;;;;9.27;7.37;;;;;;;4.64;100.00;96443.16;4932867;28;20370;-65
2023/03/31 01:07:53;;;;;;;13.27;8.13;;;;;;;4.64;100.00;96431.84;4978222;28;20205;-65
2023/03/31 01:10:21;;;;;;;8.23;7.37;;;;;;;4.64;100.00;96445.78;4953174;28;20275;-64
2023/03/31 01:12:53;;;;;;;9.73;8.73;;;;;;;4.63;100.00;96444.16;4903501;28;20224;-64
2023/03/31 01:15:21;;;;;;;8.13;6.73;;;;;;;4.63;100.00;96436.28;4971788;28;20898;-65
2023/03/31 01:17:49;;;;;;;7.33;6.73;;;;;;;4.66;100.00;96444.78;4960884;28;20213;-65
2023/03/31 01:20:24;;;;;;;7.27;6.67;;;;;;;4.63;100.00;96438.09;4937671;28;20564;-64
2023/03/31 01:23:07;;;;;;;7.93;7.13;;;;;;;4.62;100.00;96434.63;4976262;28;20204;-65
2023/03/31 01:26:08;;;;;;;9.70;7.27;;;;;;;4.68;100.00;96429.72;4947837;28;20518;-65
2023/03/31 01:28:41;;;;;;;10.20;6.93;;;;;;;4.67;100.00;96425.44;4926608;28;20644;-66
2023/03/31 01:31:29;;;;;;;8.80;7.50;;;;;;;4.60;100.00;96425.31;4971469;28;20307;-66
2023/03/31 01:34:17;;;;;;;7.97;7.27;;;;;;;4.59;100.00;96421.03;4974867;28;20296;-65
2023/03/31 01:37:14;;;;;;;8.43;7.63;;;;;;;4.59;100.00;96413.16;4953266;28;20225;-66
2023/03/31 01:40:04;;;;;;;8.53;7.47;;;;;;;4.63;100.00;96410.03;4961802;28;20225;-66
2023/03/31 01:42:34;;;;;;;7.93;7.13;;;;;;;4.67;100.00;96397.41;4948134;28;20239;-66
2023/03/31 01:45:11;;;;;;;11.60;8.10;;;;;;;4.67;100.00;96389.53;4926526;28;20222;-66
2023/03/31 01:47:43;;;;;;;10.47;8.07;;;;;;;4.61;100.00;96379.72;4979034;28;20388;-65
2023/03/31 01:50:16;;;;;;;9.10;7.97;;;;;;;4.54;100.00;96384.78;4967439;28;20315;-66
2023/03/31 01:52:47;;;;;;;9.93;8.03;;;;;;;4.47;100.00;96374.13;4951078;28;20389;-64
2023/03/31 01:55:23;;;;;;;8.77;7.87;;;;;;;4.46;100.00;96377.75;4977745;28;20988;-64
2023/03/31 01:57:53;;;;;;;8.80;7.60;;;;;;;4.43;100.00;96372.81;4928549;28;20897;-66
2023/03/31 02:00:23;;;;;;;8.33;7.40;;;;;;;4.42;100.00;96367.75;4925053;28;20613;-64
2023/03/31 02:02:56;;;;;;;7.17;6.63;;;;;;;4.41;100.00;96368.75;4977522;28;20213;-65
2023/03/31 02:05:25;;;;;;;7.57;6.87;;;;;;;4.42;100.00;96373.81;4946143;28;20212;-65
2023/03/31 02:07:55;;;;;;;7.37;6.60;;;;;;;4.45;100.00;96373.47;4959625;28;20705;-65
2023/03/31 02:10:26;;;;;;;8.40;6.93;;;;;;;4.48;100.00;96372.34;4972113;28;20857;-66
2023/03/31 02:12:55;;;;;;;8.90;6.97;;;;;;;4.49;100.00;96376.59;4955833;28;20513;-64
2023/03/31 02:15:25;;;;;;;7.90;7.20;;;;;;;4.49;100.00;96361.66;4915258;28;20311;-64
2023/03/31 02:17:56;;;;;;;10.53;7.73;;;;;;;4.51;100.00;96355.44;4978078;28;20587;-66
2023/03/31 02:20:26;;;;;;;8.00;7.20;;;;;;;4.55;100.00;96356.78;4982925;28;20231;-65
2023/03/31 02:22:55;;;;;;;7.20;6.60;;;;;;;4.52;100.00;96347.41;4964923;28;20852;-65
2023/03/31 02:25:28;;;;;;;7.83;7.03;;;;;;;4.51;100.00;96337.91;4983878;28;20224;-65
2023/03/31 02:27:58;;;;;;;8.13;7.43;;;;;;;4.51;100.00;96337.06;4966274;28;20216;-66
2023/03/31 02:30:30;;;;;;;8.67;6.50;;;;;;;4.60;100.00;96336.09;4933892;28;20503;-64
2023/03/31 02:32:59;;;;;;;7.37;6.60;;;;;;;4.64;100.00;96340.03;4981021;28;20301;-65
2023/03/31 02:35:27;;;;;;;7.87;7.10;;;;;;;4.67;100.00;96338.84;4981869;28;20713;-64
2023/03/31 02:37:57;;;;;;;8.17;6.97;;;;;;;4.71;100.00;96343.59;4959926;28;20224;-65
2023/03/31 02:40:27;;;;;;;8.10;7.17;;;;;;;4.74;100.00;96339.84;4971221;28;20546;-65
2023/03/31 02:42:55;;;;;;;8.93;7.27;;;;;;;4.76;100.00;96341.28;4982398;28;20915;-65
2023/03/31 02:45:44;;;;;;;7.33;6.70;;;;;;;4.74;100.00;96337.22;4921025;28;21208;-65
2023/03/31 02:48:16;;;;;;;7.67;7.00;;;;;;;4.73;100.00;96327.69;4981886;28;20831;-64
2023/03/31 02:51:17;;;;;;;8.00;7.20;;;;;;;4.76;100.00;96335.25;4979771;28;20831;-65
2023/03/31 02:53:57;;;;;;;7.00;6.40;;;;;;;4.81;100.00;96322.44;4937693;28;20468;-63
2023/03/31 02:56:35;;;;;;;9.23;6.90;;;;;;;4.83;100.00;96315.22;4981836;28;20458;-65
2023/03/31 02:59:17;;;;;;;8.30;6.53;;;;;;;4.83;100.00;96303.88;4973758;28;20455;-64
2023/03/31 03:01:54;;;;;;;10.03;6.93;;;;;;;4.83;100.00;96306.50;4931884;28;20213;-64
2023/03/31 03:04:36;;;;;;;9.97;6.90;;;;;;;4.77;100.00;96303.56;4983646;28;21023;-65
2023/03/31 03:07:08;;;;;;;6.70;6.20;;;;;;;4.80;100.00;96297.16;4966545;28;20211;-65
2023/03/31 03:09:44;;;;;;;6.37;5.77;;;;;;;4.81;100.00;96295.34;4979293;28;20228;-65
2023/03/31 03:12:16;;;;;;;9.17;6.77;;;;;;;4.87;100.00;96295.50;4959967;28;20584;-65
2023/03/31 03:14:47;;;;;;;7.93;6.80;;;;;;;4.90;100.00;96287.28;4964334;28;21017;-63
2023/03/31 03:17:18;;;;;;;6.80;6.00;;;;;;;4.93;100.00;96286.13;4907994;28;21092;-65
2023/03/31 03:19:51;;;;;;;7.17;5.60;;;;;;;4.97;100.00;96282.19;4977018;28;20220;-64
2023/03/31 03:22:19;;;;;;;5.90;5.40;;;;;;;5.01;100.00;96280.00;4975548;28;20763;-64
2023/03/31 03:24:46;;;;;;;6.33;5.67;;;;;;;5.05;100.00;96276.88;4962833;28;20209;-65
2023/03/31 03:27:16;;;;;;;7.03;5.57;;;;;;;5.08;100.00;96278.34;4966283;28;20943;-64
2023/03/31 03:29:43;;;;;;;6.63;5.93;;;;;;;5.11;100.00;96272.75;4971145;28;20457;-64
2023/03/31 03:32:14;;;;;;;6.63;5.93;;;;;;;5.12;100.00;96270.94;4905078;28;20218;-68
2023/03/31 03:34:42;;;;;;;6.80;6.20;;;;;;;5.12;100.00;96271.78;4966120;28;20803;-65
2023/03/31 03:37:09;;;;;;;5.33;4.97;;;;;;;5.15;100.00;96265.34;4970018;28;20689;-65
2023/03/31 03:39:37;;;;;;;8.30;5.90;;;;;;;5.15;100.00;96260.94;4956487;28;20229;-64
2023/03/31 03:42:05;;;;;;;7.17;5.40;;;;;;;5.18;100.00;96252.69;4979867;28;20303;-65
2023/03/31 03:44:34;;;;;;;6.10;5.60;;;;;;;5.19;100.00;96229.88;4989270;28;20211;-65
2023/03/31 03:47:08;;;;;;;5.47;5.00;;;;;;;5.15;100.00;96228.59;4917275;28;20245;-65
2023/03/31 03:49:36;;;;;;;6.33;5.50;;;;;;;5.17;100.00;96231.84;4951926;28;20232;-64
2023/03/31 03:52:04;;;;;;;5.73;5.23;;;;;;;5.16;100.00;96227.59;4977679;28;20209;-65
2023/03/31 03:54:32;;;;;;;4.87;4.53;;;;;;;5.15;100.00;96225.97;4958061;28;20210;-64
2023/03/31 03:56:59;;;;;;;7.20;4.80;;;;;;;5.14;100.00;96208.56;4978402;28;20561;-65
2023/03/31 03:59:27;;;;;;;6.20;5.60;;;;;;;5.15;100.00;96202.31;4972910;28;20778;-65
2023/03/31 04:01:56;;;;;;;6.50;5.80;;;;;;;5.15;100.00;96203.16;4968898;28;20206;-66
2023/03/31 04:04:24;;;;;;;6.00;5.40;;;;;;;5.14;100.00;96198.91;4927440;28;20224;-64
2023/03/31 04:06:52;;;;;;;6.13;5.60;;;;;;;5.14;100.00;96196.28;4977883;28;20740;-65
2023/03/31 04:09:19;;;;;;;5.67;5.27;;;;;;;5.14;100.00;96191.00;4961924;28;20401;-65
2023/03/31 04:11:47;;;;;;;7.13;5.40;;;;;;;5.16;100.00;96173.28;4984021;28;20204;-64
2023/03/31 04:14:14;;;;;;;6.23;5.60;;;;;;;5.19;100.00;96178.19;4979013;28;20213;-64
2023/03/31 04:16:45;;;;;;;6.50;5.57;;;;;;;5.21;100.00;96176.19;4977635;28;20573;-66
2023/03/31 04:19:16;;;;;;;6.50;5.83;;;;;;;5.24;100.00;96175.00;4913106;28;21029;-64
2023/03/31 04:21:44;;;;;;;6.30;5.80;;;;;;;5.28;100.00;96186.00;4981479;28;20205;-66
2023/03/31 04:24:20;;;;;;;7.63;6.17;;;;;;;5.30;100.00;96192.72;4974714;28;20247;-65
2023/03/31 04:26:49;;;;;;;6.23;5.33;;;;;;;5.32;100.00;96187.28;4949771;28;20209;-64
2023/03/31 04:29:19;;;;;;;6.30;5.70;;;;;;;5.33;100.00;96184.50;4973738;28;20228;-66
2023/03/31 04:31:46;;;;;;;9.67;6.33;;;;;;;5.35;100.00;96186.91;4985061;28;20204;-64
2023/03/31 04:34:15;;;;;;;8.03;6.60;;;;;;;5.35;100.00;96184.28;4905006;28;20617;-65
2023/03/31 04:36:46;;;;;;;8.53;6.63;;;;;;;5.36;100.00;96181.50;4971803;28;20209;-65
2023/03/31 04:39:15;;;;;;;8.83;6.70;;;;;;;5.34;100.00;96170.34;4980121;28;20241;-65
2023/03/31 04:41:43;;;;;;;7.30;6.23;;;;;;;5.33;100.00;96162.63;4950821;28;20872;-65
2023/03/31 04:44:10;;;;;;;7.70;6.30;;;;;;;5.30;100.00;96163.00;4979893;28;20204;-64
2023/03/31 04:46:38;;;;;;;8.10;7.50;;;;;;;5.25;100.00;96154.81;4980248;28;20200;-63
2023/03/31 04:49:06;;;;;;;7.30;6.30;;;;;;;5.25;100.00;96149.56;4957170;28;20232;-66
2023/03/31 04:51:34;;;;;;;7.57;6.97;;;;;;;5.23;100.00;96144.47;4931470;28;20223;-65
2023/03/31 04:54:02;;;;;;;8.30;6.10;;;;;;;5.26;100.00;96144.13;4970250;28;20220;-65
2023/03/31 04:56:30;;;;;;;7.37;6.63;;;;;;;5.31;100.00;96133.09;4963455;28;20709;-66
2023/03/31 04:58:57;;;;;;;9.77;7.10;;;;;;;5.32;100.00;96137.38;4983220;28;20239;-66
2023/03/31 05:01:25;;;;;;;9.10;7.20;;;;;;;5.34;100.00;96140.63;4966894;28;20299;-65
2023/03/31 05:03:53;;;;;;;8.37;7.67;;;;;;;5.37;100.00;96135.03;4953658;28;20365;-66
2023/03/31 05:06:20;;;;;;;11.73;7.70;;;;;;;5.39;100.00;96134.88;4935617;28;20220;-67
2023/03/31 05:08:49;;;;;;;9.03;8.23;;;;;;;5.42;100.00;96132.69;4979392;28;20208;-65
2023/03/31 05:11:16;;;;;;;8.70;7.77;;;;;;;5.43;100.00;96128.25;4947154;28;20914;-64
2023/03/31 05:13:44;;;;;;;9.17;7.80;;;;;;;5.45;100.00;96119.19;4958194;28;20204;-66
2023/03/31 05:16:13;;;;;;;12.13;8.60;;;;;;;5.46;100.00;96104.25;4941194;28;21023;-67
2023/03/31 05:18:42;;;;;;;9.63;8.43;;;;;;;5.48;100.00;96097.81;4914326;28;20645;-66
2023/03/31 05:21:14;;;;;;;9.37;8.40;;;;;;;5.51;100.00;96088.78;4977227;28;20295;-66
2023/03/31 05:23:42;;;;;;;9.70;8.70;;;;;;;5.53;100.00;96083.34;4927792;28;20437;-65
2023/03/31 05:26:11;;;;;;;9.20;8.40;;;;;;;5.55;100.00;96083.97;4974118;28;20469;-66
2023/03/31 05:28:39;;;;;;;11.40;8.20;;;;;;;5.55;100.00;96068.22;4959945;28;20212;-66
2023/03/31 05:31:07;;;;;;;8.57;7.63;;;;;;;5.56;100.00;96041.75;4971012;28;20221;-64
2023/03/31 05:33:39;;;;;;;8.73;8.00;;;;;;;5.59;100.00;96051.91;4972827;28;20217;-66
2023/03/31 05:36:08;;;;;;;8.77;7.97;;;;;;;5.59;100.00;96053.72;4964888;28;20220;-65
2023/03/31 05:38:36;;;;;;;10.17;7.83;;;;;;;5.59;100.00;96059.78;4925439;28;20865;-66
2023/03/31 05:41:05;;;;;;;15.27;7.60;;;;;;;5.56;100.00;96047.00;4971737;28;20680;-68
2023/03/31 05:43:34;;;;;;;9.27;8.47;;;;;;;5.54;100.00;96037.69;4950027;28;20204;-66
2023/03/31 05:46:01;;;;;;;8.97;8.17;;;;;;;5.56;100.00;96033.88;4972552;28;20208;-66
2023/03/31 05:48:29;;;;;;;8.83;7.97;;;;;;;5.57;100.00;96024.19;4988518;28;20743;-65
2023/03/31 05:50:57;;;;;;;8.87;8.07;;;;;;;5.60;100.00;96023.81;4959109;28;20233;-66
2023/03/31 05:53:26;;;;;;;9.33;8.43;;;;;;;5.61;100.00;96015.75;4942600;28;20961;-65
2023/03/31 05:55:57;;;;;;;9.00;8.10;;;;;;;5.60;100.00;96022.00;4975911;28;20310;-65
2023/03/31 05:58:25;;;;;;;10.60;8.07;;;;;;;5.59;100.00;96019.56;4951251;28;20787;-65
2023/03/31 06:01:04;;;;;;;9.20;8.03;;;;;;;5.59;100.00;96014.31;4971403;28;20426;-64
2023/03/31 06:03:32;;;;;;;8.67;7.97;;;;;;;5.56;100.00;95999.69;4975876;28;20219;-66
2023/03/31 06:06:01;;;;;;;9.60;8.67;;;;;;;5.56;100.00;96002.34;4948802;28;20480;-66
2023/03/31 06:08:29;;;;;;;10.83;8.87;;;;;;;5.57;100.00;95990.03;4924905;28;20229;-66
2023/03/31 06:10:57;;;;;;;9.23;8.07;;;;;;;5.56;100.00;95997.06;4975352;28;20648;-64
2023/03/31 06:13:24;;;;;;;12.00;8.87;;;;;;;5.57;100.00;95985.56;4976348;28;20553;-64
2023/03/31 06:15:54;;;;;;;10.20;8.83;;;;;;;5.59;100.00;95986.19;4951035;28;20613;-63
2023/03/31 06:18:23;;;;;;;10.80;8.53;;;;;;;5.61;100.00;95986.84;4979300;28;20711;-63
2023/03/31 06:20:51;;;;;;;12.00;8.90;;;;;;;5.62;100.00;95987.66;4987138;28;20459;-64
2023/03/31 06:23:18;;;;;;;10.03;9.00;;;;;;;5.68;100.00;95981.66;4968950;28;20324;-63
2023/03/31 06:25:46;;;;;;;10.23;9.23;;;;;;;5.72;100.00;95982.13;4930264;28;20878;-65
2023/03/31 06:28:19;;;;;;;10.03;9.10;;;;;;;5.76;100.00;95970.25;4986122;28;20228;-65
2023/03/31 06:30:47;;;;;;;10.07;9.07;;;;;;;5.80;100.00;95959.16;4957840;28;20892;-64
2023/03/31 06:33:15;;;;;;;12.40;9.37;;;;;;;5.79;100.00;95962.00;4989058;28;20904;-66
2023/03/31 06:35:44;;;;;;;8.93;8.13;;;;;;;5.87;100.00;95961.06;4984136;28;20322;-67
2023/03/31 06:38:11;;;;;;;12.60;11.00;;;;;;;5.95;100.00;95953.09;4968068;28;20294;-67
2023/03/31 06:40:40;;;;;;;10.23;9.03;;;;;;;5.95;100.00;95955.72;4932920;28;20235;-65
2023/03/31 06:43:07;;;;;;;10.37;9.13;;;;;;;5.96;100.00;95949.47;4983957;28;20642;-64
2023/03/31 06:45:36;;;;;;;13.00;11.07;;;;;;;5.97;100.00;95943.19;4965396;28;20225;-65
2023/03/31 06:48:05;;;;;;;10.60;8.27;;;;;;;6.04;100.00;95933.59;4984454;28;20356;-65
2023/03/31 06:50:33;;;;;;;9.40;8.03;;;;;;;6.11;100.00;95932.84;4983908;28;20228;-65
2023/03/31 06:53:02;;;;;;;9.87;8.87;;;;;;;6.16;100.00;95933.91;4962041;28;21061;-63
2023/03/31 06:55:29;;;;;;;9.63;8.77;;;;;;;6.26;100.00;95933.63;4939858;28;20318;-64
2023/03/31 06:57:57;;;;;;;8.60;7.80;;;;;;;6.35;100.00;95939.56;4981747;28;20307;-64
2023/03/31 07:00:25;;;;;;;11.17;8.03;;;;;;;6.39;100.00;95937.38;4978989;28;20271;-64
2023/03/31 07:02:53;;;;;;;9.87;8.00;;;;;;;6.39;100.00;95929.47;4947697;28;20331;-62
2023/03/31 07:05:25;;;;;;;9.97;8.50;;;;;;;6.48;100.00;95923.09;4980213;28;20635;-65
2023/03/31 07:07:53;;;;;;;10.23;9.33;;;;;;;6.58;100.00;95920.13;4958084;28;20204;-66
2023/03/31 07:10:22;;;;;;;14.53;8.47;;;;;;;6.55;100.00;95918.69;4981661;28;20380;-66
2023/03/31 07:12:50;;;;;;;8.57;7.83;;;;;;;6.60;100.00;95916.28;4930534;28;20209;-65
2023/03/31 07:15:18;;;;;;;11.63;9.80;;;;;;;6.66;100.00;95915.56;4983101;28;20213;-65
2023/03/31 07:17:49;;;;;;;9.07;7.60;;;;;;;6.70;100.00;95923.88;4959163;28;20208;-67
2023/03/31 07:20:18;;;;;;;11.73;7.17;;;;;;;6.67;100.00;95919.00;4983418;28;20709;-65
2023/03/31 07:22:48;;;;;;;11.13;8.20;;;;;;;6.72;100.00;95919.22;4962656;28;20205;-66
2023/03/31 07:25:17;;;;;;;8.37;7.57;;;;;;;6.77;100.00;95922.09;4986532;28;20208;-66
2023/03/31 07:27:46;;;;;;;9.93;7.67;;;;;;;6.75;100.00;95921.47;4932744;28;20680;-66
2023/03/31 07:30:16;;;;;;;8.80;7.90;;;;;;;6.71;100.00;95922.88;4982051;28;20235;-65
2023/03/31 07:32:46;;;;;;;9.13;8.10;;;;;;;6.72;100.00;95926.31;4962853;28;20972;-64
2023/03/31 07:35:14;;;;;;;9.23;7.37;;;;;;;6.73;100.00;95923.47;4989792;28;20337;-67
2023/03/31 07:37:43;;;;;;;9.40;8.30;;;;;;;6.70;100.00;95928.34;4965214;28;20670;-66
2023/03/31 07:40:14;;;;;;;7.80;7.00;;;;;;;6.76;100.00;95917.03;4979891;28;20487;-67
2023/03/31 07:42:42;;;;;;;8.33;7.30;;;;;;;6.79;100.00;95927.97;4936529;28;20232;-67
2023/03/31 07:45:11;;;;;;;8.00;7.40;;;;;;;6.87;100.00;95927.03;4979862;28;20205;-67
2023/03/31 07:47:39;;;;;;;10.30;9.20;;;;;;;6.90;100.00;95931.13;4966007;28;20208;-67
2023/03/31 07:50:08;;;;;;;9.90;9.00;;;;;;;6.93;100.00;95928.09;4983617;28;20221;-68
2023/03/31 07:52:35;;;;;;;11.13;8.00;;;;;;;6.87;100.00;95932.31;4971688;28;20225;-67
2023/03/31 07:55:03;;;;;;;9.83;8.90;;;;;;;6.91;100.00;95936.19;4963180;28;20439;-67
2023/03/31 07:57:32;;;;;;;8.87;7.90;;;;;;;6.90;100.00;95934.56;4977695;28;20261;-67
2023/03/31 08:00:00;;;;;;;10.03;7.57;;;;;;;6.99;100.00;95934.41;4949744;28;20740;-64
2023/03/31 08:02:30;;;;;;;8.70;7.90;;;;;;;7.12;100.00;95942.41;4965821;28;20557;-65
2023/03/31 08:04:57;;;;;;;9.53;8.00;;;;;;;7.24;100.00;95934.78;4979786;28;20458;-65
2023/03/31 08:07:26;;;;;;;12.33;9.50;;;;;;;7.31;100.00;95927.72;4983349;28;20205;-66
2023/03/31 08:09:53;;;;;;;8.40;7.53;;;;;;;7.31;100.00;95924.28;4960491;28;20275;-66
2023/03/31 08:12:21;;;;;;;13.97;8.47;;;;;;;7.26;100.00;95922.25;4974488;28;20204;-65
2023/03/31 08:14:49;;;;;;;8.97;7.90;;;;;;;7.15;100.00;95909.59;4934574;28;20464;-64
2023/03/31 08:17:16;;;;;;;8.07;7.07;;;;;;;7.04;100.00;95911.75;4975578;28;20706;-63
2023/03/31 08:19:46;;;;;;;8.20;7.40;;;;;;;6.92;100.00;95908.03;4954296;28;20229;-65
2023/03/31 08:22:13;;;;;;;9.50;7.60;;;;;;;6.86;100.00;95900.91;4982461;28;20221;-64
2023/03/31 08:24:41;;;;;;;10.90;8.00;;;;;;;6.78;100.00;95901.88;4965752;28;20220;-65
2023/03/31 08:27:09;;;;;;;9.60;8.80;;;;;;;6.80;100.00;95902.47;4986022;28;20219;-67
2023/03/31 08:29:39;;;;;;;9.93;7.47;;;;;;;6.76;100.00;95898.59;4935664;28;20983;-67
2023/03/31 08:32:06;;;;;;;9.47;8.57;;;;;;;6.71;100.00;95890.47;4977898;28;20217;-66
2023/03/31 08:34:35;;;;;;;8.83;8.00;;;;;;;6.66;100.00;95876.06;4963290;28;20238;-67
2023/03/31 08:37:04;;;;;;;10.17;7.97;;;;;;;6.62;100.00;95866.91;4980782;28;20209;-65
2023/03/31 08:39:33;;;;;;;11.60;8.37;;;;;;;6.61;100.00;95867.91;4981097;28;20229;-65
2023/03/31 08:42:02;;;;;;;11.57;8.80;;;;;;;6.57;100.00;95873.78;4964358;28;20232;-65
2023/03/31 08:44:34;;;;;;;9.60;8.40;;;;;;;6.57;100.00;95839.56;4981029;28;20219;-68
2023/03/31 08:47:07;;;;;;;10.13;9.17;;;;;;;6.55;100.00;95821.31;4962380;28;20204;-65
2023/03/31 08:49:40;;;;;;;9.17;8.27;;;;;;;6.59;100.00;95798.88;4964360;28;20236;-67
2023/03/31 08:52:12;;;;;;;12.07;8.17;;;;;;;6.72;100.00;95798.13;4982036;28;20451;-65
2023/03/31 08:54:43;;;;;;;15.00;11.53;;;;;;;6.79;100.00;95798.19;4981764;28;20201;-66
2023/03/31 08:57:16;;;;;;;9.37;8.57;;;;;;;6.85;100.00;95800.03;4963295;28;21688;-65
2023/03/31 08:59:45;;;;;;;9.47;8.60;;;;;;;6.91;100.00;95820.31;4977261;28;20228;-65
2023/03/31 09:02:18;;;;;;;8.70;7.80;;;;;;;6.97;100.00;95847.72;4929854;28;21072;-64
2023/03/31 09:05:01;;;;;;;8.67;7.83;;;;;;;7.00;100.00;95857.84;4958471;28;20291;-65
2023/03/31 09:07:37;;;;;;;10.57;9.57;;;;;;;7.03;100.00;95857.47;4975598;28;20211;-65
2023/03/31 09:10:20;;;;;;;9.07;8.13;;;;;;;7.08;100.00;95856.88;4980409;28;20539;-65
2023/03/31 09:12:52;;;;;;;9.13;8.23;;;;;;;7.13;100.00;95877.34;4956633;28;20692;-65
2023/03/31 09:15:26;;;;;;;9.27;8.40;;;;;;;7.20;100.00;95888.78;4984977;28;20204;-65
2023/03/31 09:17:54;;;;;;;9.17;8.37;;;;;;;7.26;100.00;95877.44;4929454;28;20220;-64
2023/03/31 09:20:27;;;;;;;9.60;8.67;;;;;;;7.24;100.00;95874.19;4965316;28;20232;-63
2023/03/31 09:23:01;;;;;;;10.33;9.43;;;;;;;7.47;100.00;95852.81;4978120;28;20196;-63
2023/03/31 09:25:32;;;;;;;10.13;9.13;;;;;;;7.93;100.00;95830.19;4982548;28;20310;-65
2023/03/31 09:28:00;;;;;;;9.60;8.67;;;;;;;8.29;100.00;95816.84;4961169;28;20220;-66
2023/03/31 09:30:29;;;;;;;7.90;7.30;;;;;;;8.42;100.00;95795.75;4983932;28;20674;-64
2023/03/31 09:33:09;;;;;;;7.13;6.70;;;;;;;8.76;100.00;95806.28;4926884;28;20762;-64
2023/03/31 09:35:37;;;;;;;10.70;9.67;;;;;;;8.85;100.00;95783.91;4962454;28;20889;-65
2023/03/31 09:38:06;;;;;;;7.53;6.63;;;;;;;8.95;100.00;95778.19;4976780;28;20329;-64
2023/03/31 09:40:34;;;;;;;7.27;6.67;;;;;;;8.93;100.00;95754.63;4983088;28;20247;-65
2023/03/31 09:43:04;;;;;;;7.47;6.77;;;;;;;8.94;100.00;95747.50;4956789;28;20828;-64
2023/03/31 09:45:33;;;;;;;6.90;6.20;;;;;;;8.81;100.00;95751.81;4983533;28;20205;-66
2023/03/31 09:48:05;;;;;;;7.53;6.93;;;;;;;8.62;100.00;95732.38;4975286;28;20210;-65
2023/03/31 09:50:37;;;;;;;7.40;6.63;;;;;;;8.61;100.00;95714.91;4911818;28;20232;-64
2023/03/31 09:53:07;;;;;;;6.60;6.10;;;;;;;8.55;100.00;95705.19;4977354;28;20205;-64
2023/03/31 09:55:42;;;;;;;6.63;6.13;;;;;;;8.53;100.00;95738.91;4979896;28;20405;-66
2023/03/31 09:58:13;;;;;;;7.03;6.40;;;;;;;8.45;100.00;95737.25;4958415;28;20389;-63
2023/03/31 10:00:42;;;;;;;7.00;6.40;;;;;;;8.26;100.00;95739.72;4974665;28;20223;-66
2023/03/31 10:03:12;;;;;;;8.13;7.20;;;;;;;8.41;100.00;95730.78;4981563;28;20199;-66
2023/03/31 10:05:49;;;;;;;8.10;7.40;;;;;;;8.85;100.00;95741.63;4935387;28;20259;-65
2023/03/31 10:08:27;;;;;;;7.70;6.50;;;;;;;9.17;100.00;95738.28;4979794;28;20247;-66
2023/03/31 10:10:56;;;;;;;6.40;6.00;;;;;;;9.49;100.00;95730.41;4987219;28;20216;-66
2023/03/31 10:13:25;;;;;;;6.17;5.70;;;;;;;9.69;100.00;95724.97;4986994;28;20231;-63
2023/03/31 10:15:54;;;;;;;7.67;5.37;;;;;;;9.98;100.00;95702.38;4958847;28;20731;-64
2023/03/31 10:18:31;;;;;;;6.07;5.57;;;;;;;9.89;100.00;95700.19;4983704;28;20208;-65
2023/03/31 10:21:00;;;;;;;5.60;5.20;;;;;;;9.72;100.00;95697.28;4930196;28;20672;-66
2023/03/31 10:23:31;;;;;;;5.87;5.50;;;;;;;9.94;100.00;95695.88;4979468;28;20257;-65
2023/03/31 10:25:59;;;;;;;6.90;6.30;;;;;;;10.16;100.00;95682.25;4976901;28;20319;-65
2023/03/31 10:28:27;;;;;;;6.43;5.93;;;;;;;10.41;100.00;95684.88;4973475;28;20217;-65
2023/03/31 10:31:00;;;;;;;6.63;6.13;;;;;;;10.27;100.00;95683.38;4960862;28;20872;-65
2023/03/31 10:33:30;;;;;;;6.77;6.10;;;;;;;10.50;100.00;95658.91;4980514;28;20689;-64
2023/03/31 10:35:59;;;;;;;9.17;7.00;;;;;;;11.03;100.00;95659.31;4968883;28;20209;-66
2023/03/31 10:38:31;;;;;;;7.43;6.83;;;;;;;11.27;100.00;95677.94;4934517;28;20239;-66
2023/03/31 10:41:00;;;;;;;6.83;6.23;;;;;;;11.18;100.00;95663.41;4979058;28;20220;-65
2023/03/31 10:43:29;;;;;;;8.17;7.57;;;;;;;11.73;100.00;95651.78;4983246;28;20631;-65
2023/03/31 10:45:59;;;;;;;7.83;7.20;;;;;;;11.54;100.00;95638.59;4961934;28;20332;-64
2023/03/31 10:48:29;;;;;;;7.07;6.57;;;;;;;11.04;100.00;95636.25;4980115;28;20198;-64
2023/03/31 10:51:00;;;;;;;6.97;6.47;;;;;;;10.68;100.00;95644.84;4984197;28;20242;-65
2023/03/31 10:53:29;;;;;;;9.60;6.90;;;;;;;10.76;100.00;95649.06;4937361;28;21127;-66
2023/03/31 10:56:04;;;;;;;7.40;6.80;;;;;;;10.73;100.00;95638.09;4977616;28;20593;-66
2023/03/31 10:58:39;;;;;;;7.50;6.80;;;;;;;10.33;100.00;95650.72;4982776;28;20207;-67
2023/03/31 11:01:24;;;;;;;6.80;6.10;;;;;;;10.48;100.00;95639.78;4968308;28;20852;-65
2023/03/31 11:04:03;;;;;;;9.03;7.60;;;;;;;10.97;100.00;95634.50;4975973;28;20294;-64
2023/03/31 11:06:42;;;;;;;7.07;6.57;;;;;;;11.19;100.00;95622.59;4980098;28;20213;-67
2023/03/31 11:09:23;;;;;;;6.47;5.87;;;;;;;11.43;100.00;95631.41;4984976;28;20232;-66
2023/03/31 11:11:58;;;;;;;6.80;5.80;;;;;;;11.71;100.00;95625.47;4980328;28;20200;-65
2023/03/31 11:14:33;;;;;;;5.73;5.23;;;;;;;12.03;100.00;95619.06;4979774;28;20684;-65
2023/03/31 11:17:05;;;;;;;5.87;5.37;;;;;;;12.44;100.00;95619.94;4966704;28;20399;-65
2023/03/31 11:19:42;;;;;;;5.17;4.87;;;;;;;12.65;100.00;95614.22;4983694;28;21135;-66
2023/03/31 11:22:12;;;;;;;5.90;5.40;;;;;;;12.97;100.00;95608.44;4938667;28;20231;-65
2023/03/31 11:25:07;;;;;;;6.30;5.70;;;;;;;13.23;100.00;95588.44;4986623;28;20455;-67
2023/03/31 11:27:42;;;;;;;6.10;5.70;;;;;;;13.01;100.00;95567.84;4981417;28;20207;-66
2023/03/31 11:30:17;;;;;;;5.87;4.70;;;;;;;12.91;100.00;95569.53;4977846;28;20637;-64
2023/03/31 11:32:52;;;;;;;5.90;5.40;;;;;;;13.11;100.00;95556.56;4958819;28;20287;-65
2023/03/31 11:35:37;;;;;;;5.67;4.73;;;;;;;13.07;100.00;95565.25;4960552;28;20219;-66
2023/03/31 11:38:17;;;;;;;4.70;4.30;;;;;;;13.21;100.00;95565.75;4928028;28;21075;-68
2023/03/31 11:40:54;;;;;;;8.23;4.20;;;;;;;13.60;100.00;95552.56;4984813;28;20619;-66
2023/03/31 11:43:27;;;;;;;4.60;3.97;;;;;;;13.93;100.00;95536.81;4968998;28;20212;-69
2023/03/31 11:45:59;;;;;;;4.43;3.87;;;;;;;13.96;100.00;95537.13;4967032;28;20209;-66
2023/03/31 11:48:35;;;;;;;3.47;3.13;;;;;;;14.29;99.37;95530.06;4941472;28;20213;-66